DAL1183 KPHL-KATL
Flight info
| Callsign | DAL1183 |
|---|---|
| Flight time | 1h 41m |
| Altitude | 30000 |
| Route | STOEN REEFI EMI J48 MOL FLASK OZZZI2 |
| Aircraft | B739/M-SDE2E3FGHIRWXY/LB1 |
Departure
| Time | 2026-05-07 01:48 |
|---|---|
| Airport | Philadelphia International Airport (KPHL) |
Arrival
| Time | 2026-05-07 03:30 |
|---|---|
| Airport | Hartsfield Jackson Atlanta International Airport (KATL) |
| Time | Latitude | Longitude | Altitude | Speed | Heading |
|---|---|---|---|---|---|
| 2026-05-07 01:13 | 39.87481 | -75.23793 | 24 ft | 0 kts | 353° |
| 2026-05-07 01:40 | 39.87466 | -75.23791 | 30 ft | 4 kts | 353° |
| 2026-05-07 01:40 | 39.87440 | -75.23783 | 29 ft | 4 kts | 330° |
| 2026-05-07 01:40 | 39.87423 | -75.23761 | 27 ft | 4 kts | 282° |
| 2026-05-07 01:40 | 39.87423 | -75.23739 | 27 ft | 1 kts | 256° |
| 2026-05-07 01:41 | 39.87424 | -75.23735 | 27 ft | 0 kts | 256° |
| 2026-05-07 01:43 | 39.87424 | -75.23736 | 27 ft | 1 kts | 256° |
| 2026-05-07 01:44 | 39.87419 | -75.23759 | 26 ft | 5 kts | 256° |
| 2026-05-07 01:44 | 39.87408 | -75.23817 | 24 ft | 8 kts | 256° |
| 2026-05-07 01:44 | 39.87381 | -75.23872 | 26 ft | 7 kts | 207° |
| 2026-05-07 01:44 | 39.87335 | -75.23858 | 25 ft | 7 kts | 135° |
| 2026-05-07 01:45 | 39.87296 | -75.23822 | 24 ft | 7 kts | 162° |
| 2026-05-07 01:45 | 39.87243 | -75.23802 | 28 ft | 10 kts | 164° |
| 2026-05-07 01:45 | 39.87164 | -75.23776 | 27 ft | 13 kts | 166° |
| 2026-05-07 01:45 | 39.87075 | -75.23746 | 26 ft | 13 kts | 165° |
| 2026-05-07 01:46 | 39.86997 | -75.23720 | 26 ft | 10 kts | 166° |
| 2026-05-07 01:46 | 39.86966 | -75.23668 | 27 ft | 8 kts | 85° |
| 2026-05-07 01:46 | 39.86979 | -75.23594 | 25 ft | 9 kts | 76° |
| 2026-05-07 01:46 | 39.86997 | -75.23504 | 24 ft | 10 kts | 75° |
| 2026-05-07 01:47 | 39.86999 | -75.23437 | 28 ft | 7 kts | 120° |
| 2026-05-07 01:47 | 39.86956 | -75.23411 | 28 ft | 7 kts | 165° |
| 2026-05-07 01:47 | 39.86909 | -75.23405 | 24 ft | 7 kts | 208° |
| 2026-05-07 01:47 | 39.86886 | -75.23492 | 24 ft | 26 kts | 255° |
| 2026-05-07 01:48 | 39.86771 | -75.24068 | 27 ft | 105 kts | 256° |
| 2026-05-07 01:48 | 39.86533 | -75.25266 | 62 ft | 162 kts | 254° |
| 2026-05-07 01:48 | 39.86245 | -75.26680 | 838 ft | 160 kts | 248° |
| 2026-05-07 01:48 | 39.85611 | -75.27931 | 1543 ft | 172 kts | 233° |
| 2026-05-07 01:49 | 39.84836 | -75.29162 | 2212 ft | 186 kts | 234° |
| 2026-05-07 01:49 | 39.83950 | -75.30551 | 2508 ft | 214 kts | 233° |
| 2026-05-07 01:49 | 39.83268 | -75.32314 | 3015 ft | 225 kts | 260° |
| 2026-05-07 01:49 | 39.83167 | -75.34411 | 3628 ft | 238 kts | 268° |
| 2026-05-07 01:50 | 39.83122 | -75.36594 | 4539 ft | 243 kts | 268° |
| 2026-05-07 01:50 | 39.83068 | -75.38797 | 5564 ft | 244 kts | 266° |
| 2026-05-07 01:50 | 39.83002 | -75.41018 | 6511 ft | 247 kts | 266° |
| 2026-05-07 01:50 | 39.82928 | -75.43251 | 7472 ft | 247 kts | 265° |
| 2026-05-07 01:51 | 39.82845 | -75.45488 | 8002 ft | 253 kts | 265° |
| 2026-05-07 01:51 | 39.82756 | -75.47766 | 8512 ft | 249 kts | 264° |
| 2026-05-07 01:51 | 39.82664 | -75.50006 | 9024 ft | 248 kts | 264° |
| 2026-05-07 01:51 | 39.82569 | -75.52241 | 9863 ft | 249 kts | 264° |
| 2026-05-07 01:52 | 39.82467 | -75.54539 | 10506 ft | 265 kts | 264° |
| 2026-05-07 01:52 | 39.82352 | -75.57064 | 10727 ft | 293 kts | 264° |
| 2026-05-07 01:52 | 39.82224 | -75.59827 | 10918 ft | 319 kts | 264° |
| 2026-05-07 01:52 | 39.82086 | -75.62813 | 11091 ft | 341 kts | 264° |
| 2026-05-07 01:53 | 39.81942 | -75.65956 | 11498 ft | 353 kts | 264° |
| 2026-05-07 01:53 | 39.81794 | -75.69169 | 12107 ft | 358 kts | 264° |
| 2026-05-07 01:53 | 39.81644 | -75.72410 | 12799 ft | 360 kts | 264° |
| 2026-05-07 01:53 | 39.81490 | -75.75684 | 13490 ft | 362 kts | 264° |
| 2026-05-07 01:54 | 39.81335 | -75.78971 | 14106 ft | 365 kts | 264° |
| 2026-05-07 01:54 | 39.81177 | -75.82276 | 14771 ft | 365 kts | 264° |
| 2026-05-07 01:54 | 39.81020 | -75.85538 | 15378 ft | 367 kts | 265° |
| 2026-05-07 01:54 | 39.80858 | -75.88869 | 15927 ft | 369 kts | 265° |
| 2026-05-07 01:55 | 39.80695 | -75.92214 | 16498 ft | 371 kts | 265° |
| 2026-05-07 01:55 | 39.80530 | -75.95587 | 17056 ft | 373 kts | 265° |
| 2026-05-07 01:55 | 39.80363 | -75.98961 | 17607 ft | 375 kts | 265° |
| 2026-05-07 01:55 | 39.80195 | -76.02351 | 18138 ft | 377 kts | 266° |
| 2026-05-07 01:56 | 39.80027 | -76.05724 | 18600 ft | 379 kts | 266° |
| 2026-05-07 01:56 | 39.79855 | -76.09149 | 19101 ft | 379 kts | 266° |
| 2026-05-07 01:56 | 39.79682 | -76.12566 | 19602 ft | 378 kts | 266° |
| 2026-05-07 01:56 | 39.79395 | -76.15962 | 20103 ft | 378 kts | 259° |
| 2026-05-07 01:57 | 39.78760 | -76.19284 | 20602 ft | 378 kts | 255° |
| 2026-05-07 01:57 | 39.77829 | -76.22482 | 21049 ft | 380 kts | 248° |
| 2026-05-07 01:57 | 39.76683 | -76.25551 | 21449 ft | 381 kts | 247° |
| 2026-05-07 01:57 | 39.75516 | -76.28656 | 21823 ft | 382 kts | 247° |
| 2026-05-07 01:58 | 39.74347 | -76.31767 | 22202 ft | 383 kts | 247° |
| 2026-05-07 01:58 | 39.73180 | -76.34885 | 22559 ft | 384 kts | 248° |
| 2026-05-07 01:58 | 39.72012 | -76.38009 | 22913 ft | 384 kts | 248° |
| 2026-05-07 01:58 | 39.70847 | -76.41130 | 23254 ft | 385 kts | 248° |
| 2026-05-07 01:59 | 39.69675 | -76.44273 | 23544 ft | 386 kts | 248° |
| 2026-05-07 01:59 | 39.68503 | -76.47413 | 23799 ft | 386 kts | 248° |
| 2026-05-07 01:59 | 39.67329 | -76.50554 | 24011 ft | 387 kts | 248° |
| 2026-05-07 01:59 | 39.66157 | -76.53690 | 24372 ft | 384 kts | 248° |
| 2026-05-07 02:00 | 39.64991 | -76.56801 | 24676 ft | 383 kts | 248° |
| 2026-05-07 02:00 | 39.63823 | -76.59920 | 24828 ft | 385 kts | 248° |
| 2026-05-07 02:00 | 39.62666 | -76.63008 | 25014 ft | 386 kts | 248° |
| 2026-05-07 02:00 | 39.61491 | -76.66139 | 25241 ft | 385 kts | 248° |
| 2026-05-07 02:01 | 39.60318 | -76.69260 | 25539 ft | 384 kts | 248° |
| 2026-05-07 02:01 | 39.59150 | -76.72363 | 25873 ft | 381 kts | 248° |
| 2026-05-07 02:01 | 39.57990 | -76.75442 | 26227 ft | 379 kts | 248° |
| 2026-05-07 02:01 | 39.56837 | -76.78500 | 26584 ft | 376 kts | 248° |
| 2026-05-07 02:02 | 39.55689 | -76.81543 | 26943 ft | 375 kts | 248° |
| 2026-05-07 02:02 | 39.54548 | -76.84568 | 27332 ft | 373 kts | 248° |
| 2026-05-07 02:02 | 39.53408 | -76.87583 | 27791 ft | 370 kts | 248° |
| 2026-05-07 02:02 | 39.52281 | -76.90561 | 28294 ft | 366 kts | 248° |
| 2026-05-07 02:03 | 39.51145 | -76.93497 | 28681 ft | 365 kts | 245° |
| 2026-05-07 02:03 | 39.49731 | -76.96255 | 28988 ft | 370 kts | 239° |
| 2026-05-07 02:03 | 39.48128 | -76.98837 | 29230 ft | 374 kts | 236° |
| 2026-05-07 02:03 | 39.46316 | -77.01277 | 29457 ft | 379 kts | 230° |
| 2026-05-07 02:04 | 39.44280 | -77.03472 | 29694 ft | 380 kts | 228° |
| 2026-05-07 02:04 | 39.42224 | -77.05623 | 29897 ft | 380 kts | 228° |
| 2026-05-07 02:04 | 39.40155 | -77.07781 | 29906 ft | 382 kts | 228° |
| 2026-05-07 02:05 | 39.36020 | -77.12091 | 29924 ft | 380 kts | 228° |
| 2026-05-07 02:05 | 39.31920 | -77.16376 | 29925 ft | 378 kts | 228° |
| 2026-05-07 02:06 | 39.27827 | -77.20662 | 29909 ft | 377 kts | 228° |
| 2026-05-07 02:06 | 39.23765 | -77.24914 | 29925 ft | 379 kts | 228° |
| 2026-05-07 02:07 | 39.19657 | -77.29206 | 29922 ft | 380 kts | 228° |
| 2026-05-07 02:07 | 39.13498 | -77.35628 | 29914 ft | 382 kts | 228° |
| 2026-05-07 02:08 | 39.09349 | -77.39943 | 29906 ft | 382 kts | 228° |
| 2026-05-07 02:08 | 39.05227 | -77.44227 | 29923 ft | 384 kts | 228° |
| 2026-05-07 02:09 | 39.01060 | -77.48551 | 29898 ft | 385 kts | 228° |
| 2026-05-07 02:09 | 38.96877 | -77.52882 | 29900 ft | 387 kts | 227° |
| 2026-05-07 02:10 | 38.92667 | -77.57235 | 29897 ft | 388 kts | 227° |
| 2026-05-07 02:10 | 38.88483 | -77.61554 | 29890 ft | 387 kts | 227° |
| 2026-05-07 02:11 | 38.84271 | -77.65895 | 29892 ft | 388 kts | 227° |
| 2026-05-07 02:11 | 38.80086 | -77.70203 | 29899 ft | 388 kts | 227° |
| 2026-05-07 02:12 | 38.75876 | -77.74529 | 29897 ft | 387 kts | 227° |
| 2026-05-07 02:12 | 38.71665 | -77.78852 | 29889 ft | 387 kts | 227° |
| 2026-05-07 02:13 | 38.67451 | -77.83169 | 29873 ft | 387 kts | 227° |
| 2026-05-07 02:13 | 38.63497 | -77.87692 | 29887 ft | 379 kts | 234° |
| 2026-05-07 02:14 | 38.60318 | -77.92994 | 29898 ft | 375 kts | 239° |
| 2026-05-07 02:14 | 38.57185 | -77.98369 | 29892 ft | 377 kts | 239° |
| 2026-05-07 02:15 | 38.54054 | -78.03709 | 29890 ft | 378 kts | 238° |
| 2026-05-07 02:15 | 38.50890 | -78.09088 | 29850 ft | 378 kts | 238° |
| 2026-05-07 02:16 | 38.47721 | -78.14464 | 29877 ft | 379 kts | 238° |
| 2026-05-07 02:16 | 38.44533 | -78.19862 | 29882 ft | 380 kts | 238° |
| 2026-05-07 02:17 | 38.41362 | -78.25224 | 29880 ft | 381 kts | 238° |
| 2026-05-07 02:17 | 38.38162 | -78.30624 | 29883 ft | 381 kts | 238° |
| 2026-05-07 02:18 | 38.34979 | -78.35987 | 29881 ft | 381 kts | 238° |
| 2026-05-07 02:18 | 38.32318 | -78.40463 | 29879 ft | 381 kts | 238° |
| 2026-05-07 02:19 | 38.29119 | -78.45839 | 29872 ft | 381 kts | 238° |
| 2026-05-07 02:19 | 38.25905 | -78.51230 | 29882 ft | 382 kts | 238° |
| 2026-05-07 02:20 | 38.22682 | -78.56627 | 29878 ft | 383 kts | 238° |
| 2026-05-07 02:20 | 38.19468 | -78.62001 | 29879 ft | 384 kts | 238° |
| 2026-05-07 02:21 | 38.16215 | -78.67430 | 29879 ft | 386 kts | 238° |
| 2026-05-07 02:21 | 38.12962 | -78.72848 | 29874 ft | 384 kts | 238° |
| 2026-05-07 02:22 | 38.09741 | -78.78205 | 29901 ft | 383 kts | 238° |
| 2026-05-07 02:22 | 38.06488 | -78.83609 | 29896 ft | 383 kts | 238° |
| 2026-05-07 02:23 | 38.03264 | -78.88955 | 29898 ft | 383 kts | 238° |
| 2026-05-07 02:23 | 38.00024 | -78.94319 | 29893 ft | 383 kts | 238° |
| 2026-05-07 02:24 | 37.96803 | -78.99644 | 29885 ft | 383 kts | 238° |
| 2026-05-07 02:24 | 37.93563 | -79.04992 | 29909 ft | 383 kts | 238° |
| 2026-05-07 02:25 | 37.90305 | -79.10352 | 29936 ft | 384 kts | 237° |
| 2026-05-07 02:25 | 37.86751 | -79.15433 | 29973 ft | 385 kts | 234° |
| 2026-05-07 02:26 | 37.83122 | -79.20446 | 30005 ft | 385 kts | 234° |
| 2026-05-07 02:26 | 37.79523 | -79.25421 | 30035 ft | 385 kts | 234° |
| 2026-05-07 02:27 | 37.75904 | -79.30433 | 30036 ft | 384 kts | 234° |
| 2026-05-07 02:27 | 37.72299 | -79.35427 | 30044 ft | 384 kts | 234° |
| 2026-05-07 02:28 | 37.68722 | -79.40377 | 30030 ft | 383 kts | 234° |
| 2026-05-07 02:28 | 37.65113 | -79.45362 | 30021 ft | 384 kts | 234° |
| 2026-05-07 02:29 | 37.61512 | -79.50327 | 29989 ft | 383 kts | 234° |
| 2026-05-07 02:29 | 37.57931 | -79.55259 | 29972 ft | 382 kts | 234° |
| 2026-05-07 02:30 | 37.54332 | -79.60207 | 29942 ft | 382 kts | 234° |
| 2026-05-07 02:30 | 37.50757 | -79.65116 | 29909 ft | 383 kts | 234° |
| 2026-05-07 02:31 | 37.47142 | -79.70073 | 29923 ft | 384 kts | 234° |
| 2026-05-07 02:31 | 37.43514 | -79.75040 | 29934 ft | 386 kts | 234° |
| 2026-05-07 02:32 | 37.39868 | -79.80021 | 29949 ft | 387 kts | 234° |
| 2026-05-07 02:32 | 37.36230 | -79.84984 | 29948 ft | 386 kts | 234° |
| 2026-05-07 02:33 | 37.32589 | -79.89943 | 29945 ft | 385 kts | 234° |
| 2026-05-07 02:33 | 37.28982 | -79.94847 | 29950 ft | 383 kts | 234° |
| 2026-05-07 02:34 | 37.25354 | -79.99777 | 29919 ft | 384 kts | 233° |
| 2026-05-07 02:34 | 37.21714 | -80.04715 | 29944 ft | 386 kts | 233° |
| 2026-05-07 02:35 | 37.18044 | -80.09687 | 29976 ft | 389 kts | 233° |
| 2026-05-07 02:35 | 37.14385 | -80.14632 | 29982 ft | 389 kts | 233° |
| 2026-05-07 02:36 | 37.10711 | -80.19591 | 29991 ft | 387 kts | 233° |
| 2026-05-07 02:36 | 37.07049 | -80.24527 | 29941 ft | 384 kts | 233° |
| 2026-05-07 02:37 | 37.03412 | -80.29425 | 29978 ft | 384 kts | 233° |
| 2026-05-07 02:37 | 36.99759 | -80.34272 | 29983 ft | 387 kts | 232° |
| 2026-05-07 02:38 | 36.95973 | -80.39107 | 29968 ft | 389 kts | 232° |
| 2026-05-07 02:38 | 36.92163 | -80.43951 | 29959 ft | 391 kts | 232° |
| 2026-05-07 02:39 | 36.88366 | -80.48788 | 29939 ft | 391 kts | 232° |
| 2026-05-07 02:39 | 36.84548 | -80.53655 | 29892 ft | 392 kts | 232° |
| 2026-05-07 02:40 | 36.80731 | -80.58515 | 29934 ft | 391 kts | 232° |
| 2026-05-07 02:40 | 36.76950 | -80.63325 | 29996 ft | 390 kts | 232° |
| 2026-05-07 02:41 | 36.73140 | -80.68162 | 29996 ft | 389 kts | 232° |
| 2026-05-07 02:41 | 36.69348 | -80.72970 | 30032 ft | 388 kts | 232° |
| 2026-05-07 02:42 | 36.65560 | -80.77767 | 30029 ft | 387 kts | 232° |
| 2026-05-07 02:42 | 36.61775 | -80.82555 | 29979 ft | 391 kts | 232° |
| 2026-05-07 02:43 | 36.58144 | -80.87147 | 29993 ft | 401 kts | 231° |
| 2026-05-07 02:43 | 36.54203 | -80.92114 | 29929 ft | 402 kts | 231° |
| 2026-05-07 02:44 | 36.50284 | -80.97039 | 29954 ft | 399 kts | 232° |
| 2026-05-07 02:44 | 36.46389 | -81.01932 | 29971 ft | 396 kts | 232° |
| 2026-05-07 02:45 | 36.42523 | -81.06785 | 29996 ft | 393 kts | 232° |
| 2026-05-07 02:45 | 36.38722 | -81.11546 | 30006 ft | 382 kts | 231° |
| 2026-05-07 02:46 | 36.35018 | -81.16183 | 30031 ft | 377 kts | 232° |
| 2026-05-07 02:46 | 36.31321 | -81.20808 | 30048 ft | 378 kts | 232° |
| 2026-05-07 02:47 | 36.27621 | -81.25429 | 30042 ft | 379 kts | 232° |
| 2026-05-07 02:47 | 36.23893 | -81.30081 | 30026 ft | 380 kts | 231° |
| 2026-05-07 02:48 | 36.20170 | -81.34717 | 29998 ft | 378 kts | 231° |
| 2026-05-07 02:48 | 36.16471 | -81.39318 | 29973 ft | 377 kts | 231° |
| 2026-05-07 02:49 | 36.12787 | -81.43900 | 29953 ft | 379 kts | 232° |
| 2026-05-07 02:49 | 36.09051 | -81.48539 | 29933 ft | 381 kts | 231° |
| 2026-05-07 02:50 | 36.05297 | -81.53192 | 29925 ft | 382 kts | 231° |
| 2026-05-07 02:50 | 36.01508 | -81.57882 | 29915 ft | 386 kts | 231° |
| 2026-05-07 02:51 | 35.97742 | -81.62533 | 29915 ft | 385 kts | 231° |
| 2026-05-07 02:51 | 35.93959 | -81.67201 | 29914 ft | 384 kts | 231° |
| 2026-05-07 02:52 | 35.90197 | -81.71836 | 29918 ft | 383 kts | 231° |
| 2026-05-07 02:52 | 35.86419 | -81.76485 | 29927 ft | 382 kts | 231° |
| 2026-05-07 02:53 | 35.82649 | -81.81121 | 29992 ft | 383 kts | 231° |
| 2026-05-07 02:53 | 35.78829 | -81.85812 | 29990 ft | 396 kts | 231° |
| 2026-05-07 02:54 | 35.74824 | -81.90631 | 29969 ft | 407 kts | 230° |
| 2026-05-07 02:54 | 35.70747 | -81.95490 | 29937 ft | 407 kts | 230° |
| 2026-05-07 02:55 | 35.66670 | -82.00349 | 29955 ft | 406 kts | 230° |
| 2026-05-07 02:55 | 35.62636 | -82.05161 | 29954 ft | 406 kts | 230° |
| 2026-05-07 02:56 | 35.58585 | -82.09990 | 29951 ft | 405 kts | 230° |
| 2026-05-07 02:56 | 35.54541 | -82.14804 | 29969 ft | 404 kts | 230° |
| 2026-05-07 02:57 | 35.50499 | -82.19610 | 29958 ft | 404 kts | 230° |
| 2026-05-07 02:57 | 35.46465 | -82.24398 | 29925 ft | 402 kts | 230° |
| 2026-05-07 02:58 | 35.42436 | -82.29174 | 29963 ft | 403 kts | 230° |
| 2026-05-07 02:58 | 35.38493 | -82.34026 | 29942 ft | 405 kts | 231° |
| 2026-05-07 02:59 | 35.34532 | -82.38986 | 29942 ft | 408 kts | 231° |
| 2026-05-07 02:59 | 35.30543 | -82.43952 | 29935 ft | 409 kts | 230° |
| 2026-05-07 03:00 | 35.26571 | -82.48875 | 29894 ft | 408 kts | 231° |
| 2026-05-07 03:00 | 35.22586 | -82.53803 | 29975 ft | 405 kts | 231° |
| 2026-05-07 03:01 | 35.18629 | -82.58694 | 29972 ft | 404 kts | 231° |
| 2026-05-07 03:01 | 35.14660 | -82.63563 | 29938 ft | 403 kts | 230° |
| 2026-05-07 03:02 | 35.10655 | -82.68317 | 29951 ft | 403 kts | 230° |
| 2026-05-07 03:02 | 35.06627 | -82.73073 | 29959 ft | 403 kts | 230° |
| 2026-05-07 03:03 | 35.02611 | -82.77827 | 29930 ft | 402 kts | 229° |
| 2026-05-07 03:03 | 34.98573 | -82.82615 | 29950 ft | 411 kts | 229° |
| 2026-05-07 03:04 | 34.94426 | -82.87517 | 29962 ft | 415 kts | 229° |
| 2026-05-07 03:04 | 34.90280 | -82.92355 | 29964 ft | 414 kts | 229° |
| 2026-05-07 03:05 | 34.86103 | -82.97177 | 29983 ft | 413 kts | 229° |
| 2026-05-07 03:05 | 34.82609 | -83.01213 | 29972 ft | 413 kts | 229° |
| 2026-05-07 03:06 | 34.78553 | -83.05894 | 29638 ft | 396 kts | 229° |
| 2026-05-07 03:06 | 34.76581 | -83.08169 | 29198 ft | 388 kts | 229° |
| 2026-05-07 03:06 | 34.74638 | -83.10410 | 28708 ft | 381 kts | 229° |
| 2026-05-07 03:07 | 34.72721 | -83.12618 | 28176 ft | 376 kts | 229° |
| 2026-05-07 03:07 | 34.70834 | -83.14790 | 27673 ft | 371 kts | 229° |
| 2026-05-07 03:07 | 34.68967 | -83.16937 | 27170 ft | 366 kts | 230° |
| 2026-05-07 03:07 | 34.67125 | -83.19055 | 26683 ft | 362 kts | 230° |
| 2026-05-07 03:08 | 34.65325 | -83.21125 | 26199 ft | 358 kts | 230° |
| 2026-05-07 03:08 | 34.63527 | -83.23191 | 25710 ft | 355 kts | 230° |
| 2026-05-07 03:08 | 34.61733 | -83.25254 | 25221 ft | 354 kts | 230° |
| 2026-05-07 03:08 | 34.59940 | -83.27315 | 24718 ft | 356 kts | 230° |
| 2026-05-07 03:09 | 34.58111 | -83.29418 | 24226 ft | 365 kts | 230° |
| 2026-05-07 03:09 | 34.56254 | -83.31547 | 23703 ft | 368 kts | 229° |
| 2026-05-07 03:09 | 34.54401 | -83.33669 | 23070 ft | 365 kts | 231° |
| 2026-05-07 03:09 | 34.52595 | -83.35739 | 22553 ft | 358 kts | 231° |
| 2026-05-07 03:10 | 34.50796 | -83.37803 | 22042 ft | 352 kts | 231° |
| 2026-05-07 03:10 | 34.49033 | -83.39827 | 21557 ft | 347 kts | 231° |
| 2026-05-07 03:10 | 34.47293 | -83.41826 | 21079 ft | 342 kts | 231° |
| 2026-05-07 03:10 | 34.45576 | -83.43798 | 20605 ft | 337 kts | 231° |
| 2026-05-07 03:11 | 34.43884 | -83.45740 | 20132 ft | 333 kts | 231° |
| 2026-05-07 03:11 | 34.42207 | -83.47666 | 19693 ft | 330 kts | 231° |
| 2026-05-07 03:11 | 34.40573 | -83.49541 | 19252 ft | 327 kts | 231° |
| 2026-05-07 03:11 | 34.38924 | -83.51431 | 18805 ft | 325 kts | 230° |
| 2026-05-07 03:12 | 34.37284 | -83.53311 | 18349 ft | 323 kts | 230° |
| 2026-05-07 03:12 | 34.35649 | -83.55183 | 17865 ft | 321 kts | 230° |
| 2026-05-07 03:12 | 34.34051 | -83.57012 | 17404 ft | 318 kts | 230° |
| 2026-05-07 03:12 | 34.32440 | -83.58854 | 16954 ft | 315 kts | 230° |
| 2026-05-07 03:13 | 34.30852 | -83.60667 | 16499 ft | 312 kts | 230° |
| 2026-05-07 03:13 | 34.29275 | -83.62469 | 16077 ft | 312 kts | 228° |
| 2026-05-07 03:13 | 34.27668 | -83.64252 | 15664 ft | 315 kts | 226° |
| 2026-05-07 03:13 | 34.26003 | -83.66028 | 15239 ft | 323 kts | 225° |
| 2026-05-07 03:14 | 34.24320 | -83.67806 | 14786 ft | 326 kts | 225° |
| 2026-05-07 03:14 | 34.22614 | -83.69605 | 14356 ft | 323 kts | 225° |
| 2026-05-07 03:14 | 34.19260 | -83.73154 | 13410 ft | 317 kts | 225° |
| 2026-05-07 03:15 | 34.17611 | -83.74903 | 12953 ft | 313 kts | 225° |
| 2026-05-07 03:15 | 34.15984 | -83.76631 | 12538 ft | 308 kts | 225° |
| 2026-05-07 03:15 | 34.14407 | -83.78304 | 12413 ft | 295 kts | 225° |
| 2026-05-07 03:15 | 34.12915 | -83.79887 | 12275 ft | 283 kts | 225° |
| 2026-05-07 03:16 | 34.11458 | -83.81431 | 12150 ft | 273 kts | 225° |
| 2026-05-07 03:16 | 34.10035 | -83.82940 | 11990 ft | 274 kts | 225° |
| 2026-05-07 03:16 | 34.08605 | -83.84467 | 11736 ft | 272 kts | 225° |
| 2026-05-07 03:16 | 34.07195 | -83.85981 | 11454 ft | 270 kts | 225° |
| 2026-05-07 03:17 | 34.05797 | -83.87484 | 11163 ft | 267 kts | 225° |
| 2026-05-07 03:17 | 34.04422 | -83.88963 | 10880 ft | 263 kts | 224° |
| 2026-05-07 03:17 | 34.03065 | -83.90419 | 10593 ft | 259 kts | 225° |
| 2026-05-07 03:17 | 34.01746 | -83.91833 | 10326 ft | 256 kts | 225° |
| 2026-05-07 03:18 | 34.00413 | -83.93263 | 10046 ft | 255 kts | 225° |
| 2026-05-07 03:18 | 33.99092 | -83.94677 | 9756 ft | 252 kts | 224° |
| 2026-05-07 03:18 | 33.97733 | -83.96007 | 9429 ft | 253 kts | 213° |
| 2026-05-07 03:18 | 33.96054 | -83.96690 | 9135 ft | 257 kts | 196° |
| 2026-05-07 03:19 | 33.94280 | -83.96802 | 8854 ft | 260 kts | 186° |
| 2026-05-07 03:19 | 33.92475 | -83.96717 | 8544 ft | 259 kts | 184° |
| 2026-05-07 03:19 | 33.90679 | -83.96605 | 8220 ft | 257 kts | 184° |
| 2026-05-07 03:19 | 33.88887 | -83.96506 | 7907 ft | 256 kts | 184° |
| 2026-05-07 03:20 | 33.87113 | -83.96417 | 7586 ft | 254 kts | 184° |
| 2026-05-07 03:20 | 33.85345 | -83.96334 | 7275 ft | 253 kts | 184° |
| 2026-05-07 03:20 | 33.83605 | -83.96257 | 6969 ft | 252 kts | 185° |
| 2026-05-07 03:20 | 33.81850 | -83.96181 | 6657 ft | 252 kts | 185° |
| 2026-05-07 03:21 | 33.80100 | -83.96107 | 6331 ft | 251 kts | 185° |
| 2026-05-07 03:21 | 33.78357 | -83.96034 | 6050 ft | 249 kts | 185° |
| 2026-05-07 03:21 | 33.76624 | -83.95962 | 6015 ft | 248 kts | 185° |
| 2026-05-07 03:21 | 33.74936 | -83.96137 | 5950 ft | 238 kts | 204° |
| 2026-05-07 03:22 | 33.73549 | -83.97107 | 5895 ft | 235 kts | 221° |
| 2026-05-07 03:22 | 33.72296 | -83.98388 | 5663 ft | 235 kts | 223° |
| 2026-05-07 03:22 | 33.71091 | -83.99692 | 5433 ft | 231 kts | 224° |
| 2026-05-07 03:22 | 33.69919 | -84.00980 | 5210 ft | 226 kts | 224° |
| 2026-05-07 03:23 | 33.68766 | -84.02244 | 5026 ft | 221 kts | 224° |
| 2026-05-07 03:23 | 33.67648 | -84.03477 | 4850 ft | 213 kts | 224° |
| 2026-05-07 03:23 | 33.66573 | -84.04676 | 4696 ft | 211 kts | 224° |
| 2026-05-07 03:23 | 33.65534 | -84.05893 | 4495 ft | 211 kts | 232° |
| 2026-05-07 03:24 | 33.65069 | -84.07538 | 4295 ft | 214 kts | 264° |
| 2026-05-07 03:24 | 33.65064 | -84.09312 | 4125 ft | 211 kts | 263° |
| 2026-05-07 03:24 | 33.65017 | -84.11077 | 3998 ft | 211 kts | 263° |
| 2026-05-07 03:24 | 33.64988 | -84.12838 | 3971 ft | 208 kts | 264° |
| 2026-05-07 03:25 | 33.64974 | -84.14542 | 3871 ft | 200 kts | 264° |
| 2026-05-07 03:25 | 33.64969 | -84.16186 | 3721 ft | 194 kts | 263° |
| 2026-05-07 03:25 | 33.64964 | -84.17760 | 3617 ft | 189 kts | 263° |
| 2026-05-07 03:25 | 33.64960 | -84.19333 | 3503 ft | 188 kts | 262° |
| 2026-05-07 03:26 | 33.64958 | -84.20902 | 3378 ft | 187 kts | 262° |
| 2026-05-07 03:26 | 33.64958 | -84.22472 | 3256 ft | 187 kts | 261° |
| 2026-05-07 03:26 | 33.64957 | -84.24028 | 3132 ft | 185 kts | 261° |
| 2026-05-07 03:26 | 33.64958 | -84.25536 | 2998 ft | 181 kts | 263° |
| 2026-05-07 03:27 | 33.64965 | -84.27036 | 2994 ft | 182 kts | 263° |
| 2026-05-07 03:27 | 33.64967 | -84.28550 | 2941 ft | 180 kts | 263° |
| 2026-05-07 03:27 | 33.64966 | -84.30040 | 2740 ft | 173 kts | 262° |
| 2026-05-07 03:27 | 33.64965 | -84.31433 | 2547 ft | 161 kts | 261° |
| 2026-05-07 03:28 | 33.64964 | -84.32719 | 2358 ft | 149 kts | 260° |
| 2026-05-07 03:28 | 33.64960 | -84.33954 | 2150 ft | 147 kts | 261° |
| 2026-05-07 03:28 | 33.64959 | -84.35176 | 1960 ft | 146 kts | 260° |
| 2026-05-07 03:28 | 33.64957 | -84.36376 | 1770 ft | 148 kts | 261° |
| 2026-05-07 03:29 | 33.64951 | -84.37630 | 1628 ft | 154 kts | 265° |
| 2026-05-07 03:29 | 33.64955 | -84.38906 | 1421 ft | 152 kts | 264° |
| 2026-05-07 03:29 | 33.64954 | -84.40173 | 1187 ft | 151 kts | 267° |
| 2026-05-07 03:29 | 33.64956 | -84.41427 | 1016 ft | 146 kts | 266° |
| 2026-05-07 03:30 | 33.64954 | -84.42474 | 1006 ft | 97 kts | 270° |
| 2026-05-07 03:30 | 33.64950 | -84.43027 | 1005 ft | 36 kts | 263° |
| 2026-05-07 03:30 | 33.64916 | -84.43207 | 1006 ft | 13 kts | 248° |
| 2026-05-07 03:30 | 33.64881 | -84.43288 | 1005 ft | 9 kts | 235° |
| 2026-05-07 03:31 | 33.64825 | -84.43305 | 1006 ft | 9 kts | 159° |
| 2026-05-07 03:31 | 33.64791 | -84.43249 | 1006 ft | 9 kts | 98° |
| 2026-05-07 03:31 | 33.64788 | -84.43183 | 1006 ft | 8 kts | 102° |
| 2026-05-07 03:31 | 33.64771 | -84.43151 | 1006 ft | 0 kts | 136° |
| 2026-05-07 03:32 | 33.64771 | -84.43150 | 1006 ft | 1 kts | 138° |
| 2026-05-07 03:32 | 33.64749 | -84.43138 | 1006 ft | 7 kts | 163° |
| 2026-05-07 03:32 | 33.64685 | -84.43138 | 1007 ft | 11 kts | 193° |
| 2026-05-07 03:33 | 33.64635 | -84.43197 | 1007 ft | 10 kts | 238° |
| 2026-05-07 03:33 | 33.64601 | -84.43267 | 1007 ft | 10 kts | 240° |
| 2026-05-07 03:33 | 33.64567 | -84.43336 | 1006 ft | 9 kts | 239° |
| 2026-05-07 03:33 | 33.64532 | -84.43401 | 1006 ft | 9 kts | 228° |
| 2026-05-07 03:34 | 33.64479 | -84.43430 | 1005 ft | 8 kts | 206° |
| 2026-05-07 03:34 | 33.64460 | -84.43487 | 1005 ft | 9 kts | 266° |
| 2026-05-07 03:34 | 33.64459 | -84.43577 | 1005 ft | 12 kts | 269° |
| 2026-05-07 03:34 | 33.64458 | -84.43677 | 1005 ft | 10 kts | 268° |
| 2026-05-07 03:35 | 33.64445 | -84.43746 | 1005 ft | 8 kts | 236° |
| 2026-05-07 03:35 | 33.64397 | -84.43781 | 1005 ft | 8 kts | 197° |
| 2026-05-07 03:35 | 33.64354 | -84.43795 | 1005 ft | 6 kts | 207° |
| 2026-05-07 03:35 | 33.64344 | -84.43838 | 1005 ft | 4 kts | 269° |
| 2026-05-07 03:36 | 33.64344 | -84.43856 | 1005 ft | 2 kts | 269° |
| 2026-05-07 03:36 | 33.64343 | -84.43867 | 1005 ft | 0 kts | 269° |